sensor_id;sensor_type;location;lat;lon;timestamp;temperature;humidity
5134;DHT22;2585;48.696;10.066;2023-05-19T00:01:13;10.30;1.00
5134;DHT22;2585;48.696;10.066;2023-05-19T00:03:52;10.30;1.00
5134;DHT22;2585;48.696;10.066;2023-05-19T00:06:25;10.30;1.00
5134;DHT22;2585;48.696;10.066;2023-05-19T00:11:25;10.20;27.80
5134;DHT22;2585;48.696;10.066;2023-05-19T00:13:54;10.20;58.20
5134;DHT22;2585;48.696;10.066;2023-05-19T00:16:22;10.10;90.00
5134;DHT22;2585;48.696;10.066;2023-05-19T00:18:49;10.20;63.90
5134;DHT22;2585;48.696;10.066;2023-05-19T00:21:17;10.20;58.20
5134;DHT22;2585;48.696;10.066;2023-05-19T00:23:44;10.20;65.00
5134;DHT22;2585;48.696;10.066;2023-05-19T00:26:11;10.10;80.30
5134;DHT22;2585;48.696;10.066;2023-05-19T00:28:38;10.10;1.00
5134;DHT22;2585;48.696;10.066;2023-05-19T00:31:05;10.10;1.00
5134;DHT22;2585;48.696;10.066;2023-05-19T00:33:32;10.10;7.70
5134;DHT22;2585;48.696;10.066;2023-05-19T00:36:03;10.10;43.90
5134;DHT22;2585;48.696;10.066;2023-05-19T00:38:33;10.00;61.20
5134;DHT22;2585;48.696;10.066;2023-05-19T00:41:00;10.00;91.50
5134;DHT22;2585;48.696;10.066;2023-05-19T00:43:28;10.00;1.00
5134;DHT22;2585;48.696;10.066;2023-05-19T00:45:59;10.00;74.20
5134;DHT22;2585;48.696;10.066;2023-05-19T00:48:26;9.90;88.70
5134;DHT22;2585;48.696;10.066;2023-05-19T00:50:55;9.90;52.00
5134;DHT22;2585;48.696;10.066;2023-05-19T00:53:28;9.90;52.30
5134;DHT22;2585;48.696;10.066;2023-05-19T00:55:56;9.80;69.20
5134;DHT22;2585;48.696;10.066;2023-05-19T00:58:24;9.70;45.50
5134;DHT22;2585;48.696;10.066;2023-05-19T01:00:58;9.70;25.10
5134;DHT22;2585;48.696;10.066;2023-05-19T01:03:34;9.70;7.60
5134;DHT22;2585;48.696;10.066;2023-05-19T01:06:02;9.70;61.50
5134;DHT22;2585;48.696;10.066;2023-05-19T01:08:34;9.70;78.80
5134;DHT22;2585;48.696;10.066;2023-05-19T01:11:05;9.60;91.80
5134;DHT22;2585;48.696;10.066;2023-05-19T01:13:34;9.60;18.60
5134;DHT22;2585;48.696;10.066;2023-05-19T01:16:06;9.60;60.00
5134;DHT22;2585;48.696;10.066;2023-05-19T01:18:43;9.60;91.30
5134;DHT22;2585;48.696;10.066;2023-05-19T01:21:42;9.60;22.90
5134;DHT22;2585;48.696;10.066;2023-05-19T01:24:44;9.60;89.50
5134;DHT22;2585;48.696;10.066;2023-05-19T01:27:42;9.60;1.00
5134;DHT22;2585;48.696;10.066;2023-05-19T01:32:59;9.60;5.10
5134;DHT22;2585;48.696;10.066;2023-05-19T01:35:26;9.60;1.00
5134;DHT22;2585;48.696;10.066;2023-05-19T01:37:56;9.60;10.50
5134;DHT22;2585;48.696;10.066;2023-05-19T01:40:25;9.60;1.00
5134;DHT22;2585;48.696;10.066;2023-05-19T01:42:54;9.60;1.00
5134;DHT22;2585;48.696;10.066;2023-05-19T01:45:24;9.60;1.00
5134;DHT22;2585;48.696;10.066;2023-05-19T01:47:54;9.60;43.70
5134;DHT22;2585;48.696;10.066;2023-05-19T01:50:22;9.60;1.00
5134;DHT22;2585;48.696;10.066;2023-05-19T01:52:49;9.60;1.00
5134;DHT22;2585;48.696;10.066;2023-05-19T01:55:16;9.60;74.40
5134;DHT22;2585;48.696;10.066;2023-05-19T01:58:11;9.60;84.90
5134;DHT22;2585;48.696;10.066;2023-05-19T02:09:44;9.50;1.00
5134;DHT22;2585;48.696;10.066;2023-05-19T02:15:10;9.50;1.00
5134;DHT22;2585;48.696;10.066;2023-05-19T02:17:40;9.50;1.00
5134;DHT22;2585;48.696;10.066;2023-05-19T02:20:09;9.50;83.80
5134;DHT22;2585;48.696;10.066;2023-05-19T02:22:36;9.50;90.50
5134;DHT22;2585;48.696;10.066;2023-05-19T02:25:03;9.50;86.20
5134;DHT22;2585;48.696;10.066;2023-05-19T02:27:30;9.50;1.00
5134;DHT22;2585;48.696;10.066;2023-05-19T02:29:57;9.50;1.00
5134;DHT22;2585;48.696;10.066;2023-05-19T02:32:23;9.40;1.00
5134;DHT22;2585;48.696;10.066;2023-05-19T02:34:50;9.40;1.00
5134;DHT22;2585;48.696;10.066;2023-05-19T02:37:18;9.40;1.00
5134;DHT22;2585;48.696;10.066;2023-05-19T02:39:49;9.50;1.00
5134;DHT22;2585;48.696;10.066;2023-05-19T02:42:16;9.50;1.00
5134;DHT22;2585;48.696;10.066;2023-05-19T02:44:43;9.40;1.00
5134;DHT22;2585;48.696;10.066;2023-05-19T02:47:11;9.40;44.20
5134;DHT22;2585;48.696;10.066;2023-05-19T02:49:38;9.40;19.40
5134;DHT22;2585;48.696;10.066;2023-05-19T02:52:05;9.40;27.30
5134;DHT22;2585;48.696;10.066;2023-05-19T02:54:33;9.30;1.00
5134;DHT22;2585;48.696;10.066;2023-05-19T02:57:00;9.30;1.00
5134;DHT22;2585;48.696;10.066;2023-05-19T02:59:28;9.20;1.00
5134;DHT22;2585;48.696;10.066;2023-05-19T03:01:57;9.20;1.00
5134;DHT22;2585;48.696;10.066;2023-05-19T03:04:24;9.20;90.00
5134;DHT22;2585;48.696;10.066;2023-05-19T03:06:51;9.20;1.00
5134;DHT22;2585;48.696;10.066;2023-05-19T03:09:19;9.20;1.00
5134;DHT22;2585;48.696;10.066;2023-05-19T03:11:46;9.30;29.80
5134;DHT22;2585;48.696;10.066;2023-05-19T03:14:13;9.30;61.70
5134;DHT22;2585;48.696;10.066;2023-05-19T03:16:40;9.20;1.00
5134;DHT22;2585;48.696;10.066;2023-05-19T03:19:08;9.30;75.60
5134;DHT22;2585;48.696;10.066;2023-05-19T03:21:35;9.20;69.50
5134;DHT22;2585;48.696;10.066;2023-05-19T03:24:02;9.20;8.90
5134;DHT22;2585;48.696;10.066;2023-05-19T03:26:29;9.20;29.20
5134;DHT22;2585;48.696;10.066;2023-05-19T03:28:56;9.20;7.40
5134;DHT22;2585;48.696;10.066;2023-05-19T03:31:23;9.20;15.10
5134;DHT22;2585;48.696;10.066;2023-05-19T03:33:49;9.20;1.00
5134;DHT22;2585;48.696;10.066;2023-05-19T03:36:16;9.30;1.00
5134;DHT22;2585;48.696;10.066;2023-05-19T03:38:43;9.20;73.80
5134;DHT22;2585;48.696;10.066;2023-05-19T03:41:10;9.20;79.20
5134;DHT22;2585;48.696;10.066;2023-05-19T03:43:37;9.20;74.90
5134;DHT22;2585;48.696;10.066;2023-05-19T03:46:04;9.20;1.00
5134;DHT22;2585;48.696;10.066;2023-05-19T03:48:31;9.20;1.00
5134;DHT22;2585;48.696;10.066;2023-05-19T03:50:57;9.20;1.00
5134;DHT22;2585;48.696;10.066;2023-05-19T03:53:24;9.20;38.70
5134;DHT22;2585;48.696;10.066;2023-05-19T03:55:51;9.20;67.20
5134;DHT22;2585;48.696;10.066;2023-05-19T03:58:18;9.20;64.90
5134;DHT22;2585;48.696;10.066;2023-05-19T04:00:45;9.20;55.80
5134;DHT22;2585;48.696;10.066;2023-05-19T04:03:12;9.20;4.60
5134;DHT22;2585;48.696;10.066;2023-05-19T04:05:39;9.20;58.60
5134;DHT22;2585;48.696;10.066;2023-05-19T04:08:05;9.20;73.70
5134;DHT22;2585;48.696;10.066;2023-05-19T04:10:32;9.20;10.30
5134;DHT22;2585;48.696;10.066;2023-05-19T04:12:59;9.10;1.00
5134;DHT22;2585;48.696;10.066;2023-05-19T04:15:26;9.10;1.00
5134;DHT22;2585;48.696;10.066;2023-05-19T04:17:54;9.10;1.00
5134;DHT22;2585;48.696;10.066;2023-05-19T04:20:21;9.10;1.00
5134;DHT22;2585;48.696;10.066;2023-05-19T04:22:48;9.10;43.00
5134;DHT22;2585;48.696;10.066;2023-05-19T04:25:15;9.20;1.80
5134;DHT22;2585;48.696;10.066;2023-05-19T04:27:41;9.10;82.60
5134;DHT22;2585;48.696;10.066;2023-05-19T04:30:09;9.10;90.80
5134;DHT22;2585;48.696;10.066;2023-05-19T04:32:36;9.20;54.50
5134;DHT22;2585;48.696;10.066;2023-05-19T04:35:03;9.20;67.70
5134;DHT22;2585;48.696;10.066;2023-05-19T04:37:30;9.20;61.70
5134;DHT22;2585;48.696;10.066;2023-05-19T04:39:57;9.30;74.50
5134;DHT22;2585;48.696;10.066;2023-05-19T04:42:24;9.30;7.50
5134;DHT22;2585;48.696;10.066;2023-05-19T04:44:51;9.30;60.50
5134;DHT22;2585;48.696;10.066;2023-05-19T04:47:18;9.30;64.00
5134;DHT22;2585;48.696;10.066;2023-05-19T04:49:48;9.40;62.70
5134;DHT22;2585;48.696;10.066;2023-05-19T04:52:15;9.50;91.50
5134;DHT22;2585;48.696;10.066;2023-05-19T04:54:47;9.50;75.40
5134;DHT22;2585;48.696;10.066;2023-05-19T04:57:14;9.50;54.80
5134;DHT22;2585;48.696;10.066;2023-05-19T04:59:41;9.60;70.40
5134;DHT22;2585;48.696;10.066;2023-05-19T05:02:08;9.60;68.70
5134;DHT22;2585;48.696;10.066;2023-05-19T05:04:35;9.60;1.00
5134;DHT22;2585;48.696;10.066;2023-05-19T05:07:02;9.70;8.20
5134;DHT22;2585;48.696;10.066;2023-05-19T05:09:29;9.70;17.30
5134;DHT22;2585;48.696;10.066;2023-05-19T05:11:56;9.60;1.00
5134;DHT22;2585;48.696;10.066;2023-05-19T05:14:23;9.70;1.00
5134;DHT22;2585;48.696;10.066;2023-05-19T05:16:50;9.80;82.10
5134;DHT22;2585;48.696;10.066;2023-05-19T05:19:17;9.80;1.00
5134;DHT22;2585;48.696;10.066;2023-05-19T05:21:44;9.80;1.00
5134;DHT22;2585;48.696;10.066;2023-05-19T05:24:12;9.90;1.00
5134;DHT22;2585;48.696;10.066;2023-05-19T05:26:39;9.90;1.00
5134;DHT22;2585;48.696;10.066;2023-05-19T05:29:07;10.00;92.00
5134;DHT22;2585;48.696;10.066;2023-05-19T05:31:34;10.10;11.40
5134;DHT22;2585;48.696;10.066;2023-05-19T05:34:02;10.10;1.00
5134;DHT22;2585;48.696;10.066;2023-05-19T05:36:29;10.10;81.10
5134;DHT22;2585;48.696;10.066;2023-05-19T05:38:57;10.00;9.40
5134;DHT22;2585;48.696;10.066;2023-05-19T05:41:25;10.10;19.20
5134;DHT22;2585;48.696;10.066;2023-05-19T05:43:52;10.10;3.60
5134;DHT22;2585;48.696;10.066;2023-05-19T05:46:19;10.20;16.20
5134;DHT22;2585;48.696;10.066;2023-05-19T05:48:46;10.30;1.00
5134;DHT22;2585;48.696;10.066;2023-05-19T05:51:13;10.30;1.00
5134;DHT22;2585;48.696;10.066;2023-05-19T05:53:40;10.40;1.00
5134;DHT22;2585;48.696;10.066;2023-05-19T05:56:11;10.40;1.00
5134;DHT22;2585;48.696;10.066;2023-05-19T05:58:38;10.40;1.00
5134;DHT22;2585;48.696;10.066;2023-05-19T06:01:06;10.30;28.30
5134;DHT22;2585;48.696;10.066;2023-05-19T06:03:39;10.30;77.30
5134;DHT22;2585;48.696;10.066;2023-05-19T06:06:06;10.40;64.00
5134;DHT22;2585;48.696;10.066;2023-05-19T06:08:33;10.40;75.80
5134;DHT22;2585;48.696;10.066;2023-05-19T06:10:59;10.60;82.60
5134;DHT22;2585;48.696;10.066;2023-05-19T06:13:26;10.60;74.60
5134;DHT22;2585;48.696;10.066;2023-05-19T06:15:53;10.70;1.00
5134;DHT22;2585;48.696;10.066;2023-05-19T06:18:20;10.80;1.00
5134;DHT22;2585;48.696;10.066;2023-05-19T06:20:47;11.00;92.10
5134;DHT22;2585;48.696;10.066;2023-05-19T06:23:13;11.10;79.20
5134;DHT22;2585;48.696;10.066;2023-05-19T06:25:40;11.00;51.20
5134;DHT22;2585;48.696;10.066;2023-05-19T06:28:07;11.10;64.90
5134;DHT22;2585;48.696;10.066;2023-05-19T06:30:34;11.20;1.00
5134;DHT22;2585;48.696;10.066;2023-05-19T06:33:02;11.40;61.20
5134;DHT22;2585;48.696;10.066;2023-05-19T06:35:29;11.30;53.10
5134;DHT22;2585;48.696;10.066;2023-05-19T06:37:56;11.30;1.00
5134;DHT22;2585;48.696;10.066;2023-05-19T06:40:23;11.30;1.00
5134;DHT22;2585;48.696;10.066;2023-05-19T06:42:50;11.30;1.00
5134;DHT22;2585;48.696;10.066;2023-05-19T06:45:16;11.20;69.10
5134;DHT22;2585;48.696;10.066;2023-05-19T06:47:47;11.30;1.00
5134;DHT22;2585;48.696;10.066;2023-05-19T06:50:14;11.40;1.00
5134;DHT22;2585;48.696;10.066;2023-05-19T06:52:41;11.50;84.50
5134;DHT22;2585;48.696;10.066;2023-05-19T06:55:09;11.60;1.00
5134;DHT22;2585;48.696;10.066;2023-05-19T06:57:36;11.70;88.90
5134;DHT22;2585;48.696;10.066;2023-05-19T07:00:03;11.60;74.60
5134;DHT22;2585;48.696;10.066;2023-05-19T07:02:32;11.50;71.80
5134;DHT22;2585;48.696;10.066;2023-05-19T07:04:59;11.40;85.50
5134;DHT22;2585;48.696;10.066;2023-05-19T07:07:26;11.40;91.30
5134;DHT22;2585;48.696;10.066;2023-05-19T07:09:53;11.40;71.10
5134;DHT22;2585;48.696;10.066;2023-05-19T07:12:20;11.40;69.90
5134;DHT22;2585;48.696;10.066;2023-05-19T07:14:47;11.50;70.80
5134;DHT22;2585;48.696;10.066;2023-05-19T07:17:14;11.60;73.30
5134;DHT22;2585;48.696;10.066;2023-05-19T07:19:41;11.60;64.70
5134;DHT22;2585;48.696;10.066;2023-05-19T07:22:07;11.60;63.10
5134;DHT22;2585;48.696;10.066;2023-05-19T07:24:34;11.60;36.70
5134;DHT22;2585;48.696;10.066;2023-05-19T07:27:01;11.60;26.40
5134;DHT22;2585;48.696;10.066;2023-05-19T07:29:28;11.70;36.10
5134;DHT22;2585;48.696;10.066;2023-05-19T07:31:55;11.70;2.10
5134;DHT22;2585;48.696;10.066;2023-05-19T07:34:24;11.70;46.50
5134;DHT22;2585;48.696;10.066;2023-05-19T07:36:50;11.70;5.60
5134;DHT22;2585;48.696;10.066;2023-05-19T07:39:17;11.70;1.00
5134;DHT22;2585;48.696;10.066;2023-05-19T07:41:45;11.70;7.50
5134;DHT22;2585;48.696;10.066;2023-05-19T07:44:18;11.70;1.00
5134;DHT22;2585;48.696;10.066;2023-05-19T07:46:45;11.80;1.00
5134;DHT22;2585;48.696;10.066;2023-05-19T07:49:11;11.90;1.00
5134;DHT22;2585;48.696;10.066;2023-05-19T07:51:38;11.90;1.00
5134;DHT22;2585;48.696;10.066;2023-05-19T07:54:07;12.00;1.00
5134;DHT22;2585;48.696;10.066;2023-05-19T07:56:34;12.00;1.00
5134;DHT22;2585;48.696;10.066;2023-05-19T07:59:02;12.00;1.00
5134;DHT22;2585;48.696;10.066;2023-05-19T08:01:30;12.10;1.00
5134;DHT22;2585;48.696;10.066;2023-05-19T08:03:57;12.00;1.00
5134;DHT22;2585;48.696;10.066;2023-05-19T08:06:24;12.00;1.00
5134;DHT22;2585;48.696;10.066;2023-05-19T08:08:51;12.10;1.00
5134;DHT22;2585;48.696;10.066;2023-05-19T08:11:19;12.30;92.30
5134;DHT22;2585;48.696;10.066;2023-05-19T08:13:47;12.50;1.00
5134;DHT22;2585;48.696;10.066;2023-05-19T08:16:17;12.80;91.90
5134;DHT22;2585;48.696;10.066;2023-05-19T08:18:44;13.10;1.00
5134;DHT22;2585;48.696;10.066;2023-05-19T08:21:17;13.30;75.40
5134;DHT22;2585;48.696;10.066;2023-05-19T08:23:44;13.20;63.40
5134;DHT22;2585;48.696;10.066;2023-05-19T08:26:11;13.10;10.70
5134;DHT22;2585;48.696;10.066;2023-05-19T08:28:38;13.00;34.50
5134;DHT22;2585;48.696;10.066;2023-05-19T08:31:04;13.20;62.70
5134;DHT22;2585;48.696;10.066;2023-05-19T08:33:31;13.40;14.00
5134;DHT22;2585;48.696;10.066;2023-05-19T08:35:58;13.20;23.30
5134;DHT22;2585;48.696;10.066;2023-05-19T08:38:25;13.40;2.30
5134;DHT22;2585;48.696;10.066;2023-05-19T08:40:52;13.60;1.00
5134;DHT22;2585;48.696;10.066;2023-05-19T08:43:19;13.80;1.00
5134;DHT22;2585;48.696;10.066;2023-05-19T08:45:46;13.90;1.00
5134;DHT22;2585;48.696;10.066;2023-05-19T08:48:16;13.80;1.00
5134;DHT22;2585;48.696;10.066;2023-05-19T08:51:01;13.60;1.00
5134;DHT22;2585;48.696;10.066;2023-05-19T08:53:35;13.50;1.00
5134;DHT22;2585;48.696;10.066;2023-05-19T08:56:21;13.20;1.00
5134;DHT22;2585;48.696;10.066;2023-05-19T08:58:50;13.10;1.00
5134;DHT22;2585;48.696;10.066;2023-05-19T09:01:18;12.90;1.00
5134;DHT22;2585;48.696;10.066;2023-05-19T09:03:45;12.80;1.00
5134;DHT22;2585;48.696;10.066;2023-05-19T09:06:13;12.90;1.00
5134;DHT22;2585;48.696;10.066;2023-05-19T09:08:40;12.80;1.00
5134;DHT22;2585;48.696;10.066;2023-05-19T09:11:08;12.80;1.00
5134;DHT22;2585;48.696;10.066;2023-05-19T09:13:36;12.50;1.00
5134;DHT22;2585;48.696;10.066;2023-05-19T09:16:03;12.50;1.00
5134;DHT22;2585;48.696;10.066;2023-05-19T09:18:30;12.50;1.00
5134;DHT22;2585;48.696;10.066;2023-05-19T09:21:01;12.60;1.00
5134;DHT22;2585;48.696;10.066;2023-05-19T09:23:30;12.60;1.00
5134;DHT22;2585;48.696;10.066;2023-05-19T09:26:03;12.90;1.00
5134;DHT22;2585;48.696;10.066;2023-05-19T09:28:35;13.20;1.00
5134;DHT22;2585;48.696;10.066;2023-05-19T09:31:06;13.00;1.00
5134;DHT22;2585;48.696;10.066;2023-05-19T09:33:42;12.80;1.00
5134;DHT22;2585;48.696;10.066;2023-05-19T09:36:11;12.80;1.00
5134;DHT22;2585;48.696;10.066;2023-05-19T09:38:39;12.60;1.00
5134;DHT22;2585;48.696;10.066;2023-05-19T09:41:07;12.50;1.00
5134;DHT22;2585;48.696;10.066;2023-05-19T09:43:34;12.40;1.00
5134;DHT22;2585;48.696;10.066;2023-05-19T09:46:09;12.30;1.00
5134;DHT22;2585;48.696;10.066;2023-05-19T09:48:40;12.20;1.00
5134;DHT22;2585;48.696;10.066;2023-05-19T09:51:07;12.10;1.00
5134;DHT22;2585;48.696;10.066;2023-05-19T09:53:37;12.00;1.00
5134;DHT22;2585;48.696;10.066;2023-05-19T09:56:05;12.00;1.00
5134;DHT22;2585;48.696;10.066;2023-05-19T09:58:34;12.00;10.80
5134;DHT22;2585;48.696;10.066;2023-05-19T10:01:03;12.00;19.80
5134;DHT22;2585;48.696;10.066;2023-05-19T10:03:30;12.10;1.30
5134;DHT22;2585;48.696;10.066;2023-05-19T10:06:01;12.20;1.00
5134;DHT22;2585;48.696;10.066;2023-05-19T10:08:29;12.30;1.60
5134;DHT22;2585;48.696;10.066;2023-05-19T10:10:58;12.50;3.10
5134;DHT22;2585;48.696;10.066;2023-05-19T10:13:26;12.50;1.00
5134;DHT22;2585;48.696;10.066;2023-05-19T10:15:54;12.30;1.00
5134;DHT22;2585;48.696;10.066;2023-05-19T10:18:25;12.30;1.00
5134;DHT22;2585;48.696;10.066;2023-05-19T10:20:53;12.30;1.00
5134;DHT22;2585;48.696;10.066;2023-05-19T10:23:21;12.10;1.00
5134;DHT22;2585;48.696;10.066;2023-05-19T10:25:51;12.10;1.00
5134;DHT22;2585;48.696;10.066;2023-05-19T10:28:21;12.30;19.70
5134;DHT22;2585;48.696;10.066;2023-05-19T10:30:55;12.30;1.00
5134;DHT22;2585;48.696;10.066;2023-05-19T10:33:35;12.30;1.00
5134;DHT22;2585;48.696;10.066;2023-05-19T10:39:33;12.10;9.80
5134;DHT22;2585;48.696;10.066;2023-05-19T10:42:17;12.20;13.70
5134;DHT22;2585;48.696;10.066;2023-05-19T10:45:12;12.50;22.80
5134;DHT22;2585;48.696;10.066;2023-05-19T10:47:43;12.80;2.50
5134;DHT22;2585;48.696;10.066;2023-05-19T10:50:10;13.10;1.00
5134;DHT22;2585;48.696;10.066;2023-05-19T10:52:38;13.30;1.00
5134;DHT22;2585;48.696;10.066;2023-05-19T10:55:11;13.20;1.00
5134;DHT22;2585;48.696;10.066;2023-05-19T10:57:55;13.10;1.00
5134;DHT22;2585;48.696;10.066;2023-05-19T11:00:31;12.80;1.00
5134;DHT22;2585;48.696;10.066;2023-05-19T11:03:17;12.60;1.00
5134;DHT22;2585;48.696;10.066;2023-05-19T11:05:50;12.70;1.00
5134;DHT22;2585;48.696;10.066;2023-05-19T11:08:31;12.80;1.00
5134;DHT22;2585;48.696;10.066;2023-05-19T11:11:12;12.80;1.00
5134;DHT22;2585;48.696;10.066;2023-05-19T11:13:45;12.70;1.00
5134;DHT22;2585;48.696;10.066;2023-05-19T11:16:12;12.80;1.00
5134;DHT22;2585;48.696;10.066;2023-05-19T11:18:39;12.70;1.00
5134;DHT22;2585;48.696;10.066;2023-05-19T11:21:06;12.80;1.00
5134;DHT22;2585;48.696;10.066;2023-05-19T11:23:36;12.80;1.00
5134;DHT22;2585;48.696;10.066;2023-05-19T11:26:05;12.90;1.00
5134;DHT22;2585;48.696;10.066;2023-05-19T11:28:33;12.80;1.00
5134;DHT22;2585;48.696;10.066;2023-05-19T11:30:59;12.70;1.00
5134;DHT22;2585;48.696;10.066;2023-05-19T11:33:27;12.60;1.00
5134;DHT22;2585;48.696;10.066;2023-05-19T11:35:56;12.70;1.00
5134;DHT22;2585;48.696;10.066;2023-05-19T11:38:24;12.80;1.00
5134;DHT22;2585;48.696;10.066;2023-05-19T11:40:52;12.90;1.00
5134;DHT22;2585;48.696;10.066;2023-05-19T11:43:22;13.20;1.00
5134;DHT22;2585;48.696;10.066;2023-05-19T11:45:50;13.20;1.00
5134;DHT22;2585;48.696;10.066;2023-05-19T11:48:20;13.30;1.00
5134;DHT22;2585;48.696;10.066;2023-05-19T11:50:47;13.40;1.00
5134;DHT22;2585;48.696;10.066;2023-05-19T11:53:14;13.60;1.00
5134;DHT22;2585;48.696;10.066;2023-05-19T11:55:46;13.80;1.00
5134;DHT22;2585;48.696;10.066;2023-05-19T11:58:14;13.90;1.00
5134;DHT22;2585;48.696;10.066;2023-05-19T12:00:42;14.00;1.00
5134;DHT22;2585;48.696;10.066;2023-05-19T12:03:12;13.80;91.80
5134;DHT22;2585;48.696;10.066;2023-05-19T12:05:43;13.70;88.90
5134;DHT22;2585;48.696;10.066;2023-05-19T12:08:13;13.50;90.70
5134;DHT22;2585;48.696;10.066;2023-05-19T12:10:40;13.30;1.00
5134;DHT22;2585;48.696;10.066;2023-05-19T12:13:07;13.40;1.00
5134;DHT22;2585;48.696;10.066;2023-05-19T12:15:36;13.20;1.00
5134;DHT22;2585;48.696;10.066;2023-05-19T12:18:03;13.30;1.00
5134;DHT22;2585;48.696;10.066;2023-05-19T12:20:30;13.30;1.00
5134;DHT22;2585;48.696;10.066;2023-05-19T12:22:59;13.30;1.00
5134;DHT22;2585;48.696;10.066;2023-05-19T12:25:28;13.10;1.00
5134;DHT22;2585;48.696;10.066;2023-05-19T12:27:59;13.30;1.00
5134;DHT22;2585;48.696;10.066;2023-05-19T12:30:29;13.60;1.00
5134;DHT22;2585;48.696;10.066;2023-05-19T12:32:56;13.80;92.50
5134;DHT22;2585;48.696;10.066;2023-05-19T12:35:30;13.90;92.10
5134;DHT22;2585;48.696;10.066;2023-05-19T12:38:03;14.10;1.00
5134;DHT22;2585;48.696;10.066;2023-05-19T12:40:31;14.20;92.10
5134;DHT22;2585;48.696;10.066;2023-05-19T12:42:59;13.90;82.30
5134;DHT22;2585;48.696;10.066;2023-05-19T12:45:26;13.70;90.40
5134;DHT22;2585;48.696;10.066;2023-05-19T12:47:54;13.80;1.00
5134;DHT22;2585;48.696;10.066;2023-05-19T12:50:29;13.70;90.70
5134;DHT22;2585;48.696;10.066;2023-05-19T12:52:57;13.60;1.00
5134;DHT22;2585;48.696;10.066;2023-05-19T12:55:25;13.60;93.00
5134;DHT22;2585;48.696;10.066;2023-05-19T12:57:52;13.40;92.60
5134;DHT22;2585;48.696;10.066;2023-05-19T13:00:23;13.40;1.00
5134;DHT22;2585;48.696;10.066;2023-05-19T13:03:04;13.50;1.00
5134;DHT22;2585;48.696;10.066;2023-05-19T13:05:38;13.40;1.00
5134;DHT22;2585;48.696;10.066;2023-05-19T13:08:07;13.20;92.20
5134;DHT22;2585;48.696;10.066;2023-05-19T13:10:36;13.10;1.00
5134;DHT22;2585;48.696;10.066;2023-05-19T13:13:04;13.10;1.00
5134;DHT22;2585;48.696;10.066;2023-05-19T13:15:32;13.10;1.00
5134;DHT22;2585;48.696;10.066;2023-05-19T13:18:05;13.10;1.00
5134;DHT22;2585;48.696;10.066;2023-05-19T13:20:33;13.30;1.00
5134;DHT22;2585;48.696;10.066;2023-05-19T13:23:00;13.30;1.00
5134;DHT22;2585;48.696;10.066;2023-05-19T13:25:27;13.40;1.00
5134;DHT22;2585;48.696;10.066;2023-05-19T13:27:54;13.50;1.00
5134;DHT22;2585;48.696;10.066;2023-05-19T13:30:22;13.60;1.00
5134;DHT22;2585;48.696;10.066;2023-05-19T13:32:49;13.70;1.00
5134;DHT22;2585;48.696;10.066;2023-05-19T13:35:18;13.70;1.00
5134;DHT22;2585;48.696;10.066;2023-05-19T13:37:45;13.80;91.40
5134;DHT22;2585;48.696;10.066;2023-05-19T13:40:12;13.90;92.60
5134;DHT22;2585;48.696;10.066;2023-05-19T13:42:39;14.10;91.30
5134;DHT22;2585;48.696;10.066;2023-05-19T13:45:07;14.20;92.20
5134;DHT22;2585;48.696;10.066;2023-05-19T13:47:37;14.40;88.10
5134;DHT22;2585;48.696;10.066;2023-05-19T13:50:06;14.60;81.00
5134;DHT22;2585;48.696;10.066;2023-05-19T13:52:33;14.70;81.70
5134;DHT22;2585;48.696;10.066;2023-05-19T13:55:00;14.80;70.40
5134;DHT22;2585;48.696;10.066;2023-05-19T13:57:27;14.80;68.00
5134;DHT22;2585;48.696;10.066;2023-05-19T13:59:54;14.60;65.80
5134;DHT22;2585;48.696;10.066;2023-05-19T14:02:29;14.40;64.60
5134;DHT22;2585;48.696;10.066;2023-05-19T14:04:56;14.10;66.30
5134;DHT22;2585;48.696;10.066;2023-05-19T14:07:23;14.30;81.20
5134;DHT22;2585;48.696;10.066;2023-05-19T14:09:51;14.30;77.20
5134;DHT22;2585;48.696;10.066;2023-05-19T14:12:18;14.20;75.60
5134;DHT22;2585;48.696;10.066;2023-05-19T14:14:49;14.20;84.30
5134;DHT22;2585;48.696;10.066;2023-05-19T14:17:15;14.50;78.40
5134;DHT22;2585;48.696;10.066;2023-05-19T14:19:42;14.50;74.50
5134;DHT22;2585;48.696;10.066;2023-05-19T14:22:09;14.50;67.00
5134;DHT22;2585;48.696;10.066;2023-05-19T14:24:36;14.60;65.70
5134;DHT22;2585;48.696;10.066;2023-05-19T14:27:03;14.80;77.40
5134;DHT22;2585;48.696;10.066;2023-05-19T14:29:30;14.80;70.30
5134;DHT22;2585;48.696;10.066;2023-05-19T14:31:57;14.80;70.00
5134;DHT22;2585;48.696;10.066;2023-05-19T14:34:24;14.80;70.30
5134;DHT22;2585;48.696;10.066;2023-05-19T14:36:51;14.80;68.30
5134;DHT22;2585;48.696;10.066;2023-05-19T14:39:17;15.20;74.90
5134;DHT22;2585;48.696;10.066;2023-05-19T14:41:44;15.30;66.50
5134;DHT22;2585;48.696;10.066;2023-05-19T14:44:11;15.10;43.00
5134;DHT22;2585;48.696;10.066;2023-05-19T14:46:38;15.20;62.50
5134;DHT22;2585;48.696;10.066;2023-05-19T14:49:05;15.30;45.60
5134;DHT22;2585;48.696;10.066;2023-05-19T14:51:32;15.30;45.50
5134;DHT22;2585;48.696;10.066;2023-05-19T14:53:59;15.40;41.50
5134;DHT22;2585;48.696;10.066;2023-05-19T14:56:27;15.30;51.70
5134;DHT22;2585;48.696;10.066;2023-05-19T14:58:54;15.40;50.20
5134;DHT22;2585;48.696;10.066;2023-05-19T15:01:21;15.30;60.80
5134;DHT22;2585;48.696;10.066;2023-05-19T15:03:49;15.30;60.70
5134;DHT22;2585;48.696;10.066;2023-05-19T15:06:16;15.30;54.10
5134;DHT22;2585;48.696;10.066;2023-05-19T15:08:42;15.50;53.40
5134;DHT22;2585;48.696;10.066;2023-05-19T15:11:09;15.60;43.10
5134;DHT22;2585;48.696;10.066;2023-05-19T15:13:36;15.50;51.00
5134;DHT22;2585;48.696;10.066;2023-05-19T15:16:03;15.40;67.30
5134;DHT22;2585;48.696;10.066;2023-05-19T15:18:47;15.40;61.00
5134;DHT22;2585;48.696;10.066;2023-05-19T15:21:17;15.20;53.50
5134;DHT22;2585;48.696;10.066;2023-05-19T15:23:43;15.10;49.70
5134;DHT22;2585;48.696;10.066;2023-05-19T15:26:10;15.10;63.60
5134;DHT22;2585;48.696;10.066;2023-05-19T15:28:37;15.00;61.90
5134;DHT22;2585;48.696;10.066;2023-05-19T15:31:04;15.10;66.40
5134;DHT22;2585;48.696;10.066;2023-05-19T15:33:31;15.20;74.10
5134;DHT22;2585;48.696;10.066;2023-05-19T15:35:58;15.30;69.40
5134;DHT22;2585;48.696;10.066;2023-05-19T15:38:25;15.30;48.30
5134;DHT22;2585;48.696;10.066;2023-05-19T15:40:54;15.40;70.40
5134;DHT22;2585;48.696;10.066;2023-05-19T15:43:21;15.50;64.00
5134;DHT22;2585;48.696;10.066;2023-05-19T15:45:48;15.50;50.00
5134;DHT22;2585;48.696;10.066;2023-05-19T15:48:17;15.50;60.00
5134;DHT22;2585;48.696;10.066;2023-05-19T15:50:44;15.40;52.30
5134;DHT22;2585;48.696;10.066;2023-05-19T15:53:11;15.50;47.80
5134;DHT22;2585;48.696;10.066;2023-05-19T15:55:38;15.70;56.40
5134;DHT22;2585;48.696;10.066;2023-05-19T15:58:05;15.50;26.40
5134;DHT22;2585;48.696;10.066;2023-05-19T16:00:33;15.60;39.00
5134;DHT22;2585;48.696;10.066;2023-05-19T16:03:00;15.80;44.30
5134;DHT22;2585;48.696;10.066;2023-05-19T16:05:27;15.90;37.80
5134;DHT22;2585;48.696;10.066;2023-05-19T16:07:54;16.00;37.70
5134;DHT22;2585;48.696;10.066;2023-05-19T16:10:21;16.00;27.60
5134;DHT22;2585;48.696;10.066;2023-05-19T16:12:48;16.00;33.60
5134;DHT22;2585;48.696;10.066;2023-05-19T16:15:15;16.00;37.00
5134;DHT22;2585;48.696;10.066;2023-05-19T16:17:42;16.10;19.50
5134;DHT22;2585;48.696;10.066;2023-05-19T16:20:09;16.10;32.30
5134;DHT22;2585;48.696;10.066;2023-05-19T16:22:36;16.20;27.90
5134;DHT22;2585;48.696;10.066;2023-05-19T16:25:04;16.20;38.00
5134;DHT22;2585;48.696;10.066;2023-05-19T16:27:31;16.20;26.40